KWAL/WAL METAR and TAF weather

Enter ICAO airport designator
Station Type Date Time Source
KWAL METAR 2019/10/22 15:54 UTC NOAA

KWAL 221554Z 15010KT 10SM OVC006 17/17 A2998 RMK AO2 SLP149 T01720167 $


Station Type Date Time Source
KWAL Decoded METAR 2019/10/22 15:54 UTC NOAA

WALLOPS FLIGHT FAC AIRPORT , VA, United States (KWAL) 37-56N 075-28W 14M
Oct 22, 2019 - 11:54 AM EDT / 2019.10.22 1554 UTC
Wind: from the SSE (150 degrees) at 12 MPH (10 KT):0
Visibility: 10 mile(s):0
Sky conditions: overcast
Temperature: 63.0 F (17.2 C)
Dew Point: 62.1 F (16.7 C)
Relative Humidity: 96%
Pressure (altimeter): 29.98 in. Hg (1015 hPa)
ob: KWAL 221554Z 15010KT 10SM OVC006 17/17 A2998 RMK AO2 SLP149 T01720167
cycle: 16

Station Type Date Time Source
KWAL TAF UTC NOAA

Error!

Example: see airport list